Time;durP1;ratioP1;P1;durP2;ratioP2;P2;SDS_P1;SDS_P2;PMS_P1;PMS_P2;Temp;Humidity;BMP_temperature;BMP_pressure;BME280_temperature;BME280_humidity;BME280_pressure;Samples;Min_cycle;Max_cycle;Signal;HPM_P1;HPM_P2
2023/03/23 00:01:20;;;;;;;3.72;1.85;;;9.60;94.30;;;;;;5032471;28;20044;-59
2023/03/23 00:03:56;;;;;;;4.50;1.65;;;9.50;94.30;;;;;;5032656;28;20037;-58
2023/03/23 00:06:26;;;;;;;2.50;1.48;;;9.50;94.30;;;;;;5047203;28;20083;-57
2023/03/23 00:08:59;;;;;;;4.43;1.15;;;9.50;94.30;;;;;;5052214;28;20124;-55
2023/03/23 00:11:30;;;;;;;5.20;1.60;;;9.50;94.30;;;;;;5052544;28;20485;-57
2023/03/23 00:14:00;;;;;;;3.63;1.40;;;9.40;94.30;;;;;;5031193;28;20056;-55
2023/03/23 00:16:31;;;;;;;3.78;2.15;;;9.40;94.30;;;;;;5037574;28;20025;-56
2023/03/23 00:19:07;;;;;;;3.58;1.65;;;9.40;94.40;;;;;;5050410;28;20521;-57
2023/03/23 00:21:36;;;;;;;3.95;1.55;;;9.40;94.40;;;;;;5042207;28;20044;-56
2023/03/23 00:24:10;;;;;;;3.75;1.80;;;9.40;94.50;;;;;;5048445;28;20025;-55
2023/03/23 00:26:40;;;;;;;4.07;1.40;;;9.40;94.40;;;;;;5044350;28;20044;-50
2023/03/23 00:29:19;;;;;;;3.03;1.40;;;9.40;94.40;;;;;;5052893;28;20076;-58
2023/03/23 00:31:47;;;;;;;4.07;1.57;;;9.30;94.40;;;;;;5032130;28;20117;-58
2023/03/23 00:34:25;;;;;;;4.43;1.50;;;9.30;94.50;;;;;;5032356;28;20288;-59
2023/03/23 00:36:58;;;;;;;4.03;1.17;;;9.30;94.50;;;;;;5032209;28;20410;-58
2023/03/23 00:39:26;;;;;;;3.35;1.30;;;9.30;94.60;;;;;;5031345;28;20420;-57
2023/03/23 00:42:00;;;;;;;3.40;1.20;;;9.20;94.60;;;;;;5051962;28;20108;-58
2023/03/23 00:44:39;;;;;;;3.95;1.30;;;9.30;94.50;;;;;;5034841;28;20132;-57
2023/03/23 00:47:12;;;;;;;2.67;1.13;;;9.20;94.60;;;;;;5042179;28;20189;-56
2023/03/23 00:49:40;;;;;;;4.40;1.23;;;9.20;94.60;;;;;;5042597;28;20120;-57
2023/03/23 00:52:09;;;;;;;2.95;1.10;;;9.20;94.60;;;;;;5048803;28;20130;-58
2023/03/23 00:54:37;;;;;;;4.57;1.38;;;9.20;94.60;;;;;;5044983;28;20033;-56
2023/03/23 00:57:05;;;;;;;3.78;1.48;;;9.20;94.60;;;;;;5041016;28;20029;-58
2023/03/23 00:59:33;;;;;;;4.93;1.45;;;9.20;94.60;;;;;;5039404;28;20036;-56
2023/03/23 01:02:01;;;;;;;2.80;1.20;;;9.20;94.60;;;;;;5032525;28;20041;-56
2023/03/23 01:04:31;;;;;;;2.97;1.23;;;9.20;94.60;;;;;;5050114;28;20044;-58
2023/03/23 01:07:00;;;;;;;6.35;1.50;;;9.20;94.60;;;;;;5052232;28;20166;-54
2023/03/23 01:09:28;;;;;;;4.18;1.65;;;9.20;94.70;;;;;;5052234;28;20021;-58
2023/03/23 01:11:56;;;;;;;7.18;2.55;;;9.20;94.70;;;;;;5043365;28;20028;-56
2023/03/23 01:14:22;;;;;;;5.13;2.95;;;9.30;94.80;;;;;;5051082;28;20029;-58
2023/03/23 01:16:48;;;;;;;7.28;4.00;;;9.30;94.90;;;;;;5039543;28;20514;-54
2023/03/23 01:19:17;;;;;;;10.32;6.88;;;9.40;94.90;;;;;;5032311;28;20049;-57
2023/03/23 01:21:44;;;;;;;12.07;8.90;;;9.50;95.10;;;;;;5032337;28;20037;-51
2023/03/23 01:24:14;;;;;;;14.90;11.05;;;9.60;95.20;;;;;;5036079;28;20075;-51
2023/03/23 01:26:40;;;;;;;;;;;9.70;95.30;;;;;;5049948;28;20481;-52
2023/03/23 01:29:08;;;;;;;16.48;14.27;;;9.90;95.40;;;;;;5051080;28;19913;-48
2023/03/23 01:31:36;;;;;;;16.80;14.98;;;9.90;95.40;;;;;;5047539;28;20025;-49
2023/03/23 01:34:02;;;;;;;20.75;16.80;;;10.10;95.50;;;;;;5047657;28;20025;-49
2023/03/23 01:36:32;;;;;;;23.25;18.38;;;10.20;95.60;;;;;;5038599;28;20026;-50
2023/03/23 01:39:03;;;;;;;19.25;16.52;;;10.30;95.60;;;;;;5031518;28;20403;-50
2023/03/23 01:41:31;;;;;;;21.17;18.30;;;10.30;95.60;;;;;;5043076;28;20061;-49
2023/03/23 01:44:15;;;;;;;20.35;17.58;;;10.40;95.70;;;;;;5052270;28;20031;-51
2023/03/23 01:46:43;;;;;;;23.17;17.13;;;10.40;95.60;;;;;;5038973;28;20029;-47
2023/03/23 01:49:27;;;;;;;17.33;15.35;;;10.50;95.70;;;;;;5046457;28;20037;-62
2023/03/23 01:52:23;;;;;;;25.77;15.93;;;10.50;95.60;;;;;;5047668;28;20024;-58
2023/03/23 01:54:55;;;;;;;20.08;14.90;;;10.60;95.60;;;;;;5035057;28;20025;-50
2023/03/23 01:57:39;;;;;;;20.38;14.50;;;10.70;95.60;;;;;;5034642;28;20045;-54
2023/03/23 02:00:14;;;;;;;13.18;9.38;;;10.60;95.50;;;;;;5034988;28;20179;-57
2023/03/23 02:02:46;;;;;;;3.00;1.55;;;10.50;95.40;;;;;;5035716;28;20029;-52
2023/03/23 02:05:19;;;;;;;4.18;1.58;;;10.30;95.20;;;;;;5034904;28;20124;-58
2023/03/23 02:07:49;;;;;;;3.63;0.65;;;10.10;95.20;;;;;;5034562;28;20029;-60
2023/03/23 02:10:15;;;;;;;2.40;0.70;;;10.10;95.20;;;;;;5050952;28;20141;-64
2023/03/23 02:12:44;;;;;;;2.67;1.02;;;10.00;95.20;;;;;;5042382;28;20104;-57
2023/03/23 02:15:15;;;;;;;2.75;1.40;;;9.90;95.30;;;;;;5054391;28;20074;-53
2023/03/23 02:17:51;;;;;;;6.85;3.72;;;10.00;95.30;;;;;;5054216;28;20040;-54
2023/03/23 02:20:42;;;;;;;12.25;9.27;;;10.00;95.40;;;;;;5027884;28;20064;-60
2023/03/23 02:23:38;;;;;;;15.35;11.20;;;10.10;95.50;;;;;;5049572;28;20368;-61
2023/03/23 02:26:32;;;;;;;15.82;12.90;;;10.20;95.60;;;;;;5045942;28;20859;-60
2023/03/23 02:29:36;;;;;;;13.02;10.90;;;10.30;95.60;;;;;;5043697;28;20503;-60
2023/03/23 02:32:33;;;;;;;12.73;9.55;;;10.40;95.50;;;;;;5035145;28;20029;-60
2023/03/23 02:35:18;;;;;;;9.80;7.93;;;10.40;95.50;;;;;;4998989;28;20440;-58
2023/03/23 02:37:58;;;;;;;10.20;7.45;;;10.30;95.40;;;;;;5048350;28;20032;-54
2023/03/23 02:40:32;;;;;;;11.23;8.05;;;10.30;95.40;;;;;;5033746;28;20025;-51
2023/03/23 02:43:12;;;;;;;12.20;8.13;;;10.20;95.40;;;;;;5047989;28;20029;-50
2023/03/23 02:45:40;;;;;;;12.75;8.40;;;10.20;95.30;;;;;;5045633;28;20030;-48
2023/03/23 02:48:09;;;;;;;7.15;5.88;;;10.20;95.30;;;;;;5033415;28;20042;-48
2023/03/23 02:50:38;;;;;;;6.30;5.32;;;10.10;95.20;;;;;;5033738;28;20031;-47
2023/03/23 02:53:11;;;;;;;7.57;5.38;;;10.00;95.10;;;;;;5033539;28;20037;-47
2023/03/23 02:55:42;;;;;;;7.78;4.65;;;10.00;95.10;;;;;;5042362;28;20045;-49
2023/03/23 02:58:11;;;;;;;8.93;4.15;;;9.90;95.00;;;;;;5043757;28;20040;-50
2023/03/23 03:00:39;;;;;;;5.47;3.97;;;9.90;95.00;;;;;;5040424;28;20033;-46
2023/03/23 03:03:13;;;;;;;5.82;2.63;;;9.80;95.00;;;;;;5045711;28;20033;-46
2023/03/23 03:05:51;;;;;;;6.00;2.50;;;9.80;95.00;;;;;;5050675;28;20032;-46
2023/03/23 03:08:39;;;;;;;5.45;2.65;;;9.80;94.90;;;;;;5033364;28;20071;-45
2023/03/23 03:11:25;;;;;;;3.47;2.17;;;9.70;94.80;;;;;;5036263;28;20022;-45
2023/03/23 03:13:56;;;;;;;5.90;2.78;;;9.70;94.70;;;;;;5046716;28;20520;-45
2023/03/23 03:16:30;;;;;;;3.60;2.30;;;9.60;94.60;;;;;;5049488;28;20041;-47
2023/03/23 03:19:22;;;;;;;3.40;2.20;;;9.60;94.60;;;;;;5051857;28;20049;-48
2023/03/23 03:21:54;;;;;;;4.90;2.30;;;9.60;94.60;;;;;;5033977;28;20403;-47
2023/03/23 03:24:27;;;;;;;4.63;2.50;;;9.60;94.60;;;;;;5041190;28;20442;-45
2023/03/23 03:26:58;;;;;;;6.07;3.60;;;9.60;94.60;;;;;;5039522;28;20069;-45
2023/03/23 03:29:32;;;;;;;6.70;3.33;;;9.70;94.50;;;;;;5032894;28;20029;-45
2023/03/23 03:32:05;;;;;;;7.88;3.17;;;9.70;94.50;;;;;;5032981;28;20359;-45
2023/03/23 03:34:34;;;;;;;7.90;3.80;;;9.70;94.50;;;;;;5033504;28;20051;-45
2023/03/23 03:37:01;;;;;;;6.35;3.85;;;9.70;94.50;;;;;;5032082;28;20751;-44
2023/03/23 03:39:29;;;;;;;8.88;4.60;;;9.70;94.60;;;;;;5033550;28;20026;-45
2023/03/23 03:41:56;;;;;;;7.18;4.80;;;9.70;94.60;;;;;;5032082;28;20028;-45
2023/03/23 03:44:22;;;;;;;9.70;5.28;;;9.70;94.60;;;;;;5033552;28;20017;-44
2023/03/23 03:46:49;;;;;;;8.98;5.85;;;9.70;94.70;;;;;;5046758;28;20025;-46
2023/03/23 03:49:17;;;;;;;15.05;7.28;;;9.70;94.70;;;;;;5043951;28;20030;-44
2023/03/23 03:51:45;;;;;;;12.30;7.68;;;9.70;94.80;;;;;;5039381;28;20108;-43
2023/03/23 03:54:12;;;;;;;9.30;7.93;;;9.80;94.90;;;;;;5033603;28;20037;-45
2023/03/23 03:56:40;;;;;;;11.23;8.48;;;9.90;95.00;;;;;;5032848;28;20036;-44
2023/03/23 03:59:12;;;;;;;12.98;8.50;;;9.90;94.90;;;;;;5048250;28;20037;-45
2023/03/23 04:01:43;;;;;;;12.52;8.95;;;9.90;94.90;;;;;;5037304;28;20033;-44
2023/03/23 04:04:11;;;;;;;12.90;9.25;;;9.90;94.90;;;;;;5053317;28;20082;-44
2023/03/23 04:06:38;;;;;;;15.52;9.60;;;9.90;94.90;;;;;;5053203;28;20031;-44
2023/03/23 04:09:07;;;;;;;14.32;8.90;;;9.90;95.00;;;;;;5048293;28;20420;-44
2023/03/23 04:11:33;;;;;;;11.35;8.73;;;9.90;94.90;;;;;;5033327;28;20037;-44
2023/03/23 04:14:00;;;;;;;10.43;8.45;;;9.90;94.90;;;;;;5035683;28;20116;-43
2023/03/23 04:16:29;;;;;;;15.65;8.88;;;9.90;94.90;;;;;;5053050;28;20079;-44
2023/03/23 04:18:56;;;;;;;12.65;8.15;;;9.90;94.80;;;;;;5051625;28;20052;-44
2023/03/23 04:21:23;;;;;;;13.25;8.18;;;9.90;94.70;;;;;;5053032;28;20051;-44
2023/03/23 04:23:50;;;;;;;11.15;8.02;;;9.80;94.80;;;;;;5048182;28;20074;-45
2023/03/23 04:26:18;;;;;;;12.65;8.43;;;9.90;94.70;;;;;;5050871;28;20029;-44
2023/03/23 04:28:44;;;;;;;11.38;8.00;;;9.80;94.70;;;;;;5052797;28;20020;-44
2023/03/23 04:31:12;;;;;;;12.43;7.63;;;9.80;94.70;;;;;;5048057;28;20029;-45
2023/03/23 04:33:40;;;;;;;11.18;7.50;;;9.70;94.60;;;;;;5032143;28;20036;-44
2023/03/23 04:36:11;;;;;;;14.38;8.57;;;9.70;94.60;;;;;;5033015;28;20029;-44
2023/03/23 04:38:57;;;;;;;11.90;7.25;;;9.80;94.60;;;;;;5045811;28;20048;-44
2023/03/23 04:41:24;;;;;;;11.43;7.50;;;9.80;94.60;;;;;;5046786;28;20439;-44
2023/03/23 04:43:53;;;;;;;9.82;7.05;;;9.80;94.70;;;;;;5038595;28;20471;-44
2023/03/23 04:46:22;;;;;;;11.70;7.80;;;9.80;94.70;;;;;;5033254;28;20033;-43
2023/03/23 04:48:51;;;;;;;11.20;7.68;;;9.90;94.60;;;;;;5046356;28;20274;-45
2023/03/23 04:51:18;;;;;;;10.27;6.97;;;9.90;94.60;;;;;;5049925;28;20025;-43
2023/03/23 04:53:45;;;;;;;11.48;6.88;;;9.90;94.60;;;;;;5046587;28;20426;-44
2023/03/23 04:56:13;;;;;;;14.68;6.78;;;9.90;94.60;;;;;;5052866;28;20029;-43
2023/03/23 04:58:43;;;;;;;10.90;6.03;;;9.90;94.50;;;;;;5047364;28;20462;-43
2023/03/23 05:01:13;;;;;;;10.77;6.53;;;9.90;94.60;;;;;;5035497;28;20036;-44
2023/03/23 05:03:39;;;;;;;14.68;6.32;;;9.90;94.50;;;;;;5038632;28;20036;-57
2023/03/23 05:06:09;;;;;;;10.90;5.85;;;10.00;94.50;;;;;;5052683;28;20025;-59
2023/03/23 05:08:38;;;;;;;;;;;10.00;94.50;;;;;;5034877;28;20346;-60
2023/03/23 05:11:09;;;;;;;7.30;5.97;;;10.10;94.50;;;;;;5040752;28;19955;-57
2023/03/23 05:13:39;;;;;;;9.68;6.70;;;10.20;94.40;;;;;;5043098;28;20041;-57
2023/03/23 05:16:07;;;;;;;10.10;6.80;;;10.20;94.40;;;;;;5047635;28;20409;-57
2023/03/23 05:18:46;;;;;;;9.95;6.25;;;10.20;94.30;;;;;;5039880;28;20029;-59
2023/03/23 05:21:17;;;;;;;12.82;6.43;;;10.30;94.40;;;;;;5044343;28;20037;-58
2023/03/23 05:23:45;;;;;;;10.50;5.88;;;10.30;94.40;;;;;;5046816;28;20029;-51
2023/03/23 05:26:13;;;;;;;10.57;6.05;;;10.30;94.40;;;;;;5045671;28;20064;-53
2023/03/23 05:28:41;;;;;;;11.90;6.38;;;10.30;94.40;;;;;;5035489;28;20121;-58
2023/03/23 05:31:08;;;;;;;9.52;6.38;;;10.30;94.50;;;;;;5045902;28;20504;-58
2023/03/23 05:33:36;;;;;;;8.85;6.35;;;10.20;94.50;;;;;;5055260;28;20518;-50
2023/03/23 05:36:06;;;;;;;5.80;3.10;;;10.30;94.60;;;;;;5055152;28;20086;-57
2023/03/23 05:38:33;;;;;;;4.70;1.70;;;10.20;94.20;;;;;;5056081;28;20033;-56
2023/03/23 05:41:01;;;;;;;2.38;1.08;;;9.90;93.70;;;;;;5036934;28;20037;-55
2023/03/23 05:43:27;;;;;;;2.88;0.93;;;9.70;93.50;;;;;;5055954;28;20025;-56
2023/03/23 05:45:53;;;;;;;4.05;0.88;;;9.40;93.20;;;;;;5051020;28;20100;-53
2023/03/23 05:48:21;;;;;;;2.78;1.20;;;9.30;93.20;;;;;;5044207;28;20042;-57
2023/03/23 05:50:49;;;;;;;2.38;0.95;;;9.20;93.10;;;;;;5035639;28;20087;-57
2023/03/23 05:53:16;;;;;;;3.78;1.50;;;9.20;93.20;;;;;;5045878;28;20087;-54
2023/03/23 05:55:43;;;;;;;10.70;1.75;;;9.10;93.50;;;;;;5035893;28;20117;-57
2023/03/23 05:58:10;;;;;;;3.30;1.00;;;9.10;93.60;;;;;;5050364;28;20484;-55
2023/03/23 06:00:40;;;;;;;3.45;1.23;;;9.20;93.80;;;;;;5055549;28;20029;-51
2023/03/23 06:03:08;;;;;;;;;;;9.30;93.80;;;;;;5047495;28;20041;-51
2023/03/23 06:05:34;;;;;;;5.53;1.73;;;9.30;93.80;;;;;;5035168;28;19916;-49
2023/03/23 06:08:04;;;;;;;4.35;1.10;;;9.30;93.80;;;;;;5035256;28;20423;-48
2023/03/23 06:10:30;;;;;;;4.97;1.70;;;9.30;93.70;;;;;;5034276;28;20041;-47
2023/03/23 06:12:57;;;;;;;4.97;1.40;;;9.30;93.60;;;;;;5037939;28;20104;-47
2023/03/23 06:15:24;;;;;;;4.43;1.08;;;9.30;93.70;;;;;;5053508;28;20107;-46
2023/03/23 06:17:56;;;;;;;4.53;1.35;;;9.30;93.70;;;;;;5044694;28;20098;-48
2023/03/23 06:20:24;;;;;;;6.03;1.45;;;9.30;93.70;;;;;;5050042;28;20064;-46
2023/03/23 06:22:54;;;;;;;7.38;1.42;;;9.30;93.80;;;;;;5052401;28;20478;-44
2023/03/23 06:25:21;;;;;;;2.78;1.25;;;9.30;93.80;;;;;;5052234;28;20078;-45
2023/03/23 06:27:48;;;;;;;3.35;1.30;;;9.30;93.70;;;;;;5053746;28;20028;-46
2023/03/23 06:30:18;;;;;;;4.57;1.55;;;9.30;93.70;;;;;;5040604;28;20033;-45
2023/03/23 06:32:47;;;;;;;5.10;1.80;;;9.30;93.60;;;;;;5049851;28;20480;-46
2023/03/23 06:35:14;;;;;;;6.88;1.50;;;9.40;93.60;;;;;;5045356;28;20339;-46
2023/03/23 06:37:41;;;;;;;3.78;1.65;;;9.40;93.60;;;;;;5051185;28;20116;-46
2023/03/23 06:40:10;;;;;;;5.72;1.63;;;9.40;93.50;;;;;;5046834;28;20033;-44
2023/03/23 06:42:37;;;;;;;7.32;1.50;;;9.50;93.40;;;;;;5050689;28;20054;-44
2023/03/23 06:45:05;;;;;;;9.55;2.75;;;9.60;93.40;;;;;;5051406;28;20024;-43
2023/03/23 06:47:33;;;;;;;7.60;1.35;;;9.70;93.40;;;;;;5051263;28;20079;-43
2023/03/23 06:50:00;;;;;;;6.53;2.40;;;9.90;93.40;;;;;;5050271;28;20086;-43
2023/03/23 06:52:26;;;;;;;4.25;1.75;;;10.00;93.30;;;;;;5041020;28;20084;-43
2023/03/23 06:54:53;;;;;;;5.10;2.25;;;10.20;93.30;;;;;;5052757;28;20052;-44
2023/03/23 06:57:21;;;;;;;11.05;2.65;;;10.30;93.10;;;;;;5038174;28;20111;-43
2023/03/23 06:59:47;;;;;;;6.75;3.00;;;10.40;93.10;;;;;;5051766;28;20442;-43
2023/03/23 07:02:16;;;;;;;7.53;2.45;;;10.60;92.90;;;;;;5051352;28;20040;-43
2023/03/23 07:04:41;;;;;;;7.85;2.58;;;10.60;92.70;;;;;;5052312;28;20033;-43
2023/03/23 07:07:14;;;;;;;8.05;3.55;;;10.70;92.40;;;;;;5049521;28;20071;-43
2023/03/23 07:09:42;;;;;;;9.45;2.70;;;10.70;92.40;;;;;;5049765;28;20028;-42
2023/03/23 07:12:09;;;;;;;9.15;2.80;;;10.70;92.10;;;;;;5051107;28;20029;-42
2023/03/23 07:14:36;;;;;;;7.93;2.40;;;10.70;92.00;;;;;;5041460;28;20037;-42
2023/03/23 07:17:07;;;;;;;10.05;2.75;;;10.70;92.00;;;;;;5051707;28;20419;-42
2023/03/23 07:19:35;;;;;;;9.15;3.55;;;10.70;92.00;;;;;;5049004;28;20045;-43
2023/03/23 07:22:04;;;;;;;7.80;3.00;;;10.70;92.00;;;;;;5051970;28;20094;-44
2023/03/23 07:24:31;;;;;;;10.35;3.22;;;10.60;92.10;;;;;;5052922;28;20071;-42
2023/03/23 07:26:59;;;;;;;12.50;3.25;;;10.60;92.00;;;;;;5051521;28;20057;-43
2023/03/23 07:29:26;;;;;;;16.38;2.88;;;10.60;91.90;;;;;;5050039;28;20614;-43
2023/03/23 07:31:57;;;;;;;14.32;3.50;;;10.60;91.80;;;;;;5045187;28;20029;-42
2023/03/23 07:34:22;;;;;;;9.18;2.63;;;10.60;91.70;;;;;;5044907;28;20048;-43
2023/03/23 07:36:48;;;;;;;15.50;4.53;;;10.50;91.60;;;;;;5052461;28;20458;-42
2023/03/23 07:39:18;;;;;;;13.50;3.88;;;10.50;91.70;;;;;;5052364;28;20446;-43
2023/03/23 07:41:44;;;;;;;13.15;3.80;;;10.50;91.60;;;;;;5047481;28;20025;-43
2023/03/23 07:44:13;;;;;;;16.73;3.75;;;10.60;91.40;;;;;;5050866;28;20476;-42
2023/03/23 07:46:42;;;;;;;15.48;3.92;;;10.90;91.20;;;;;;5050579;28;20086;-43
2023/03/23 07:49:09;;;;;;;18.83;4.80;;;11.10;90.60;;;;;;5050105;28;20031;-42
2023/03/23 07:51:38;;;;;;;16.15;3.40;;;11.30;89.80;;;;;;5052077;28;20412;-43
2023/03/23 07:54:11;;;;;;;18.15;4.25;;;11.60;89.20;;;;;;5050542;28;20090;-45
2023/03/23 07:56:46;;;;;;;12.80;4.72;;;11.80;88.20;;;;;;5049681;28;20052;-42
2023/03/23 07:59:12;;;;;;;18.98;3.97;;;11.80;86.70;;;;;;5052196;28;20037;-43
2023/03/23 08:01:49;;;;;;;12.27;3.55;;;11.90;86.80;;;;;;5040324;28;20116;-45
2023/03/23 08:04:15;;;;;;;14.20;3.80;;;12.00;86.10;;;;;;5051699;28;20025;-44
2023/03/23 08:06:42;;;;;;;15.27;4.25;;;12.10;84.90;;;;;;5033449;28;20071;-45
2023/03/23 08:09:11;;;;;;;11.73;3.70;;;12.40;84.90;;;;;;5061325;28;20493;-44
2023/03/23 08:11:39;;;;;;;11.05;3.50;;;12.40;84.30;;;;;;5052048;28;20041;-44
2023/03/23 08:14:05;;;;;;;13.00;3.08;;;12.50;83.60;;;;;;5051893;28;20178;-44
2023/03/23 08:16:41;;;;;;;11.98;3.10;;;12.60;83.30;;;;;;5047649;28;20120;-44
2023/03/23 08:19:07;;;;;;;13.73;3.08;;;12.90;82.20;;;;;;5050198;28;20067;-47
2023/03/23 08:21:35;;;;;;;10.05;2.80;;;13.10;80.90;;;;;;5051475;28;20025;-46
2023/03/23 08:24:02;;;;;;;8.93;2.72;;;13.40;79.60;;;;;;5051657;28;20032;-46
2023/03/23 08:26:29;;;;;;;8.60;2.78;;;13.50;78.70;;;;;;5050012;28;20028;-46
2023/03/23 08:28:57;;;;;;;10.77;3.22;;;13.80;78.00;;;;;;5050035;28;20454;-47
2023/03/23 08:31:27;;;;;;;8.95;2.20;;;13.80;73.40;;;;;;5050269;28;20043;-45
2023/03/23 08:33:56;;;;;;;13.20;2.42;;;13.70;72.60;;;;;;5051699;28;20055;-49
2023/03/23 08:36:24;;;;;;;9.65;2.80;;;13.60;73.50;;;;;;5048391;28;20025;-45
2023/03/23 08:38:52;;;;;;;15.70;3.47;;;13.70;73.70;;;;;;5050442;28;20523;-48
2023/03/23 08:41:21;;;;;;;13.60;3.00;;;13.70;72.40;;;;;;5035240;28;20029;-44
2023/03/23 08:43:48;;;;;;;8.13;2.50;;;13.50;72.30;;;;;;5051074;28;20029;-45
2023/03/23 08:46:18;;;;;;;11.65;4.20;;;13.40;72.10;;;;;;5041105;28;20737;-47
2023/03/23 08:48:46;;;;;;;8.32;2.45;;;13.40;72.60;;;;;;5050750;28;20029;-45
2023/03/23 08:51:12;;;;;;;8.77;2.15;;;13.40;72.50;;;;;;5050179;28;20028;-45
2023/03/23 08:53:38;;;;;;;13.35;3.05;;;13.50;71.80;;;;;;5051395;28;20031;-45
2023/03/23 08:56:10;;;;;;;9.20;3.30;;;13.40;72.00;;;;;;5051377;28;20338;-48
2023/03/23 08:58:38;;;;;;;9.90;2.72;;;13.10;71.90;;;;;;5050666;28;20032;-44
2023/03/23 09:01:07;;;;;;;12.63;2.53;;;13.10;73.10;;;;;;5032970;28;20040;-48
2023/03/23 09:03:35;;;;;;;12.05;2.88;;;13.00;73.80;;;;;;5055143;28;20052;-45
2023/03/23 09:06:05;;;;;;;14.45;2.97;;;12.90;73.60;;;;;;5053296;28;20485;-47
2023/03/23 09:08:32;;;;;;;14.23;3.22;;;12.90;74.70;;;;;;5052463;28;20118;-45
2023/03/23 09:11:08;;;;;;;14.13;3.15;;;13.00;75.30;;;;;;5055429;28;20036;-45
2023/03/23 09:13:45;;;;;;;16.38;3.38;;;13.00;75.50;;;;;;5038051;28;20033;-45
2023/03/23 09:16:13;;;;;;;13.27;3.47;;;13.20;76.10;;;;;;5051930;28;20017;-47
2023/03/23 09:18:43;;;;;;;13.15;4.18;;;13.20;75.60;;;;;;5055109;28;20462;-44
2023/03/23 09:21:10;;;;;;;12.02;3.60;;;13.20;76.10;;;;;;5055349;28;20147;-44
2023/03/23 09:23:43;;;;;;;17.83;4.50;;;13.10;76.70;;;;;;5053589;28;20108;-45
2023/03/23 09:26:11;;;;;;;18.58;4.07;;;13.20;76.90;;;;;;5055199;28;20024;-44
2023/03/23 09:28:39;;;;;;;16.80;3.97;;;13.40;77.70;;;;;;5048445;28;20021;-44
2023/03/23 09:31:07;;;;;;;20.65;4.28;;;13.20;77.40;;;;;;5054664;28;20122;-46
2023/03/23 09:33:36;;;;;;;14.60;5.00;;;13.10;77.90;;;;;;5054917;28;20167;-47
2023/03/23 09:36:07;;;;;;;22.08;4.75;;;13.20;78.60;;;;;;5055076;28;20346;-44
2023/03/23 09:38:35;;;;;;;19.60;5.13;;;13.40;77.10;;;;;;5039975;28;20025;-45
2023/03/23 09:41:11;;;;;;;18.95;4.30;;;13.40;76.00;;;;;;5055215;28;20029;-45
2023/03/23 09:44:14;;;;;;;19.75;5.47;;;13.40;77.30;;;;;;5046455;28;20351;-45
2023/03/23 09:47:11;;;;;;;17.65;4.93;;;13.80;77.30;;;;;;5039592;28;20036;-48
2023/03/23 09:49:51;;;;;;;15.73;4.47;;;14.30;76.80;;;;;;5054981;28;20024;-49
2023/03/23 09:52:29;;;;;;;15.50;4.47;;;14.40;73.40;;;;;;5050875;28;20467;-45
2023/03/23 09:54:59;;;;;;;17.25;3.60;;;14.40;73.50;;;;;;5053885;28;20067;-47
2023/03/23 09:58:23;;;;;;;29.88;11.75;;;14.50;72.10;;;;;;5051323;28;20036;-46
2023/03/23 10:01:17;;;;;;;17.73;5.47;;;15.00;72.40;;;;;;4997446;28;20067;-47
2023/03/23 10:03:46;;;;;;;21.40;5.18;;;15.10;70.90;;;;;;5044024;28;20040;-50
2023/03/23 10:06:26;;;;;;;18.27;4.20;;;15.20;70.50;;;;;;5053424;28;20033;-46
2023/03/23 10:08:57;;;;;;;16.20;4.10;;;15.40;70.00;;;;;;5045858;28;20048;-49
2023/03/23 10:11:59;;;;;;;17.13;5.40;;;15.80;68.70;;;;;;5049309;28;20022;-46
2023/03/23 10:15:08;;;;;;;18.08;4.15;;;16.10;68.50;;;;;;5053910;28;20071;-47
2023/03/23 10:17:54;;;;;;;15.40;3.88;;;16.00;67.10;;;;;;5040362;28;20037;-46
2023/03/23 10:20:44;;;;;;;15.90;4.38;;;15.90;67.30;;;;;;5050055;28;20076;-46
2023/03/23 10:23:39;;;;;;;14.77;4.95;;;16.00;66.80;;;;;;5053647;28;20048;-47
2023/03/23 10:26:34;;;;;;;16.17;4.78;;;15.80;66.70;;;;;;5053807;28;20108;-47
2023/03/23 10:29:18;;;;;;;13.63;3.80;;;15.60;65.70;;;;;;5053219;28;20024;-46
2023/03/23 10:31:58;;;;;;;15.27;4.43;;;14.90;66.60;;;;;;5046478;28;20063;-46
2023/03/23 10:34:47;;;;;;;11.60;4.05;;;14.20;68.70;;;;;;5031383;28;20037;-47
2023/03/23 10:37:20;;;;;;;14.05;3.72;;;14.00;70.30;;;;;;5050722;28;20095;-46
2023/03/23 10:39:58;;;;;;;19.30;3.92;;;13.90;71.60;;;;;;5052114;28;20041;-49
2023/03/23 10:42:32;;;;;;;16.90;3.90;;;14.10;73.00;;;;;;5053036;28;20083;-48
2023/03/23 10:45:26;;;;;;;18.05;4.85;;;14.40;72.00;;;;;;5051971;28;20032;-47
2023/03/23 10:47:55;;;;;;;15.80;4.70;;;14.70;69.70;;;;;;5046966;28;20033;-48
2023/03/23 10:50:46;;;;;;;13.35;4.45;;;14.70;70.70;;;;;;5053325;28;20048;-46
2023/03/23 10:53:23;;;;;;;16.75;4.70;;;15.00;70.40;;;;;;5051482;28;20040;-48
2023/03/23 10:55:50;;;;;;;20.17;4.97;;;15.40;70.70;;;;;;5050837;28;20060;-51
2023/03/23 10:58:33;;;;;;;15.18;4.43;;;15.70;69.40;;;;;;5052620;28;20356;-49
2023/03/23 11:01:04;;;;;;;21.27;5.95;;;16.00;68.30;;;;;;5036274;28;20562;-47
2023/03/23 11:03:51;;;;;;;18.40;5.03;;;16.20;67.20;;;;;;5044977;28;20068;-48
2023/03/23 11:06:35;;;;;;;18.75;4.55;;;16.10;66.90;;;;;;5051958;28;20025;-48
2023/03/23 11:09:17;;;;;;;18.48;5.10;;;15.60;65.30;;;;;;5048015;28;20059;-48
2023/03/23 11:11:55;;;;;;;15.07;4.53;;;15.50;66.60;;;;;;5048401;28;20068;-46
2023/03/23 11:14:27;;;;;;;14.88;3.88;;;15.30;66.00;;;;;;5052038;28;20036;-46
2023/03/23 11:16:57;;;;;;;15.20;4.43;;;15.20;66.50;;;;;;5052065;28;20421;-48
2023/03/23 11:19:28;;;;;;;14.52;3.58;;;15.40;64.50;;;;;;5051772;28;20071;-53
2023/03/23 11:22:04;;;;;;;16.70;4.55;;;15.40;64.10;;;;;;5044019;28;20355;-48
2023/03/23 11:24:45;;;;;;;13.73;4.00;;;15.00;63.00;;;;;;5051211;28;20424;-50
2023/03/23 11:27:11;;;;;;;18.85;4.13;;;14.60;65.30;;;;;;5052204;28;20461;-49
2023/03/23 11:29:56;;;;;;;17.55;5.05;;;14.50;66.30;;;;;;5032516;28;20426;-48
2023/03/23 11:32:27;;;;;;;14.10;3.97;;;14.30;67.10;;;;;;5048751;28;20484;-46
2023/03/23 11:35:05;;;;;;;11.77;3.80;;;14.10;67.30;;;;;;5046086;28;20041;-46
2023/03/23 11:37:49;;;;;;;11.80;4.38;;;14.20;65.80;;;;;;5050121;28;20574;-46
2023/03/23 11:40:43;;;;;;;14.57;3.58;;;14.40;66.00;;;;;;5052000;28;20732;-48
2023/03/23 11:43:18;;;;;;;15.02;5.30;;;14.50;63.90;;;;;;5051383;28;20439;-50
2023/03/23 11:46:09;;;;;;;11.80;3.45;;;14.70;62.90;;;;;;5050337;28;20028;-47
2023/03/23 11:49:04;;;;;;;12.48;4.05;;;14.70;60.70;;;;;;5043491;28;20367;-48
2023/03/23 11:51:46;;;;;;;10.52;3.15;;;15.00;61.20;;;;;;5050525;28;20032;-46
2023/03/23 11:54:15;;;;;;;15.50;3.90;;;15.00;62.40;;;;;;5033272;28;20037;-48
2023/03/23 11:56:45;;;;;;;13.38;3.55;;;15.20;60.80;;;;;;5048424;28;20034;-46
2023/03/23 11:59:15;;;;;;;14.57;2.65;;;15.00;60.00;;;;;;5052183;28;20464;-48
2023/03/23 12:02:01;;;;;;;11.98;2.40;;;15.00;60.50;;;;;;5049411;28;20060;-49
2023/03/23 12:04:36;;;;;;;14.32;4.32;;;15.30;60.90;;;;;;5051628;28;20029;-47
2023/03/23 12:07:32;;;;;;;8.95;3.10;;;15.20;58.80;;;;;;5033619;28;20036;-48
2023/03/23 12:10:39;;;;;;;14.57;3.35;;;15.40;59.50;;;;;;5048665;28;20051;-47
2023/03/23 12:13:29;;;;;;;11.25;3.65;;;15.60;58.70;;;;;;5047715;28;20389;-49
2023/03/23 12:16:26;;;;;;;9.18;3.17;;;15.60;59.20;;;;;;5037748;28;20502;-46
2023/03/23 12:19:05;;;;;;;12.20;3.80;;;15.50;57.60;;;;;;5041861;28;20408;-47
2023/03/23 12:22:05;;;;;;;14.40;2.97;;;15.50;59.30;;;;;;5049924;28;20041;-49
2023/03/23 12:25:09;;;;;;;15.15;4.15;;;15.50;57.40;;;;;;5050994;28;20402;-48
2023/03/23 12:27:57;;;;;;;11.32;3.33;;;15.50;59.90;;;;;;5050645;28;20414;-47
2023/03/23 12:30:56;;;;;;;14.73;3.95;;;15.50;60.70;;;;;;5050539;28;20338;-50
2023/03/23 12:33:46;;;;;;;11.65;3.33;;;15.40;59.10;;;;;;5036542;28;20029;-46
2023/03/23 12:36:49;;;;;;;15.77;3.70;;;15.60;61.10;;;;;;5043595;28;20036;-46
2023/03/23 12:39:30;;;;;;;13.20;4.07;;;15.40;58.70;;;;;;5032203;28;20041;-46
2023/03/23 12:42:33;;;;;;;11.27;3.22;;;15.20;60.50;;;;;;5038046;28;20764;-47
2023/03/23 12:45:33;;;;;;;13.02;3.45;;;15.30;60.00;;;;;;5050652;28;20109;-47
2023/03/23 12:48:20;;;;;;;16.80;4.22;;;15.20;60.80;;;;;;5050375;28;20116;-47
2023/03/23 12:51:14;;;;;;;11.43;3.45;;;15.10;60.20;;;;;;5031656;28;20033;-48
2023/03/23 12:54:07;;;;;;;12.30;3.50;;;15.00;60.40;;;;;;5031826;28;20030;-47
2023/03/23 12:56:54;;;;;;;14.70;4.00;;;15.00;62.10;;;;;;5032928;28;20481;-47
2023/03/23 12:59:51;;;;;;;11.73;2.72;;;15.00;61.40;;;;;;5051342;28;20033;-46
2023/03/23 13:02:30;;;;;;;13.23;3.55;;;14.50;61.30;;;;;;5051143;28;20033;-50
2023/03/23 13:05:24;;;;;;;14.85;3.25;;;14.40;62.90;;;;;;5051822;28;20497;-49
2023/03/23 13:08:08;;;;;;;12.60;3.38;;;14.50;63.60;;;;;;5031990;28;20025;-49
2023/03/23 13:10:47;;;;;;;10.05;2.60;;;14.50;62.60;;;;;;5030972;28;20032;-48
2023/03/23 13:13:21;;;;;;;12.25;3.10;;;14.30;62.30;;;;;;5015446;28;20030;-49
2023/03/23 13:16:11;;;;;;;14.95;2.97;;;14.40;62.40;;;;;;5014824;28;20053;-50
2023/03/23 13:19:07;;;;;;;7.85;2.28;;;14.70;61.40;;;;;;5031383;28;20412;-50
2023/03/23 13:22:13;;;;;;;7.80;2.60;;;14.90;60.30;;;;;;5031457;28;20111;-48